sensor_id;sensor_type;location;lat;lon;timestamp;P1;durP1;ratioP1;P2;durP2;ratioP2
44272;SDS011;29964;17.182;-96.766;2023-06-01T00:01:56;5.25;;;3.53;;
44272;SDS011;29964;17.182;-96.766;2023-06-01T00:04:23;5.55;;;3.80;;
44272;SDS011;29964;17.182;-96.766;2023-06-01T00:06:50;6.97;;;3.35;;
44272;SDS011;29964;17.182;-96.766;2023-06-01T00:09:17;6.82;;;3.33;;
44272;SDS011;29964;17.182;-96.766;2023-06-01T00:11:44;9.70;;;3.65;;
44272;SDS011;29964;17.182;-96.766;2023-06-01T00:14:10;4.35;;;3.35;;
44272;SDS011;29964;17.182;-96.766;2023-06-01T00:16:37;8.38;;;4.57;;
44272;SDS011;29964;17.182;-96.766;2023-06-01T00:19:04;6.80;;;3.63;;
44272;SDS011;29964;17.182;-96.766;2023-06-01T00:21:32;5.75;;;4.50;;
44272;SDS011;29964;17.182;-96.766;2023-06-01T00:24:01;5.10;;;4.00;;
44272;SDS011;29964;17.182;-96.766;2023-06-01T00:26:28;5.32;;;3.88;;
44272;SDS011;29964;17.182;-96.766;2023-06-01T00:28:58;5.13;;;4.05;;
44272;SDS011;29964;17.182;-96.766;2023-06-01T00:31:25;6.15;;;4.78;;
44272;SDS011;29964;17.182;-96.766;2023-06-01T00:33:52;6.53;;;4.63;;
44272;SDS011;29964;17.182;-96.766;2023-06-01T00:36:19;6.95;;;5.07;;
44272;SDS011;29964;17.182;-96.766;2023-06-01T00:38:46;6.60;;;4.90;;
44272;SDS011;29964;17.182;-96.766;2023-06-01T00:41:13;7.78;;;5.38;;
44272;SDS011;29964;17.182;-96.766;2023-06-01T00:43:40;6.03;;;4.47;;
44272;SDS011;29964;17.182;-96.766;2023-06-01T00:46:07;8.95;;;6.13;;
44272;SDS011;29964;17.182;-96.766;2023-06-01T00:48:35;15.43;;;5.93;;
44272;SDS011;29964;17.182;-96.766;2023-06-01T00:51:02;6.88;;;5.80;;
44272;SDS011;29964;17.182;-96.766;2023-06-01T00:53:29;11.30;;;5.97;;
44272;SDS011;29964;17.182;-96.766;2023-06-01T00:55:59;8.80;;;5.25;;
44272;SDS011;29964;17.182;-96.766;2023-06-01T00:58:26;12.05;;;5.43;;
44272;SDS011;29964;17.182;-96.766;2023-06-01T01:00:53;9.38;;;5.30;;
44272;SDS011;29964;17.182;-96.766;2023-06-01T01:03:20;8.20;;;5.95;;
44272;SDS011;29964;17.182;-96.766;2023-06-01T01:05:51;12.57;;;6.47;;
44272;SDS011;29964;17.182;-96.766;2023-06-01T01:08:34;13.10;;;5.95;;
44272;SDS011;29964;17.182;-96.766;2023-06-01T01:11:15;8.70;;;5.25;;
44272;SDS011;29964;17.182;-96.766;2023-06-01T01:13:48;5.95;;;4.78;;
44272;SDS011;29964;17.182;-96.766;2023-06-01T01:16:22;9.87;;;5.90;;
44272;SDS011;29964;17.182;-96.766;2023-06-01T01:21:36;7.97;;;5.10;;
44272;SDS011;29964;17.182;-96.766;2023-06-01T01:24:29;14.53;;;4.77;;
44272;SDS011;29964;17.182;-96.766;2023-06-01T01:27:06;11.70;;;4.93;;
44272;SDS011;29964;17.182;-96.766;2023-06-01T01:29:37;16.53;;;6.57;;
44272;SDS011;29964;17.182;-96.766;2023-06-01T01:32:04;10.25;;;6.97;;
44272;SDS011;29964;17.182;-96.766;2023-06-01T01:34:31;10.17;;;6.43;;
44272;SDS011;29964;17.182;-96.766;2023-06-01T01:36:58;9.77;;;6.73;;
44272;SDS011;29964;17.182;-96.766;2023-06-01T01:39:25;8.37;;;6.20;;
44272;SDS011;29964;17.182;-96.766;2023-06-01T01:41:52;7.73;;;5.87;;
44272;SDS011;29964;17.182;-96.766;2023-06-01T01:44:19;11.40;;;6.00;;
44272;SDS011;29964;17.182;-96.766;2023-06-01T01:46:54;17.83;;;6.57;;
44272;SDS011;29964;17.182;-96.766;2023-06-01T01:49:27;6.70;;;4.90;;
44272;SDS011;29964;17.182;-96.766;2023-06-01T01:52:12;17.67;;;6.47;;
44272;SDS011;29964;17.182;-96.766;2023-06-01T01:54:44;7.57;;;5.97;;
44272;SDS011;29964;17.182;-96.766;2023-06-01T01:57:14;7.73;;;5.27;;
44272;SDS011;29964;17.182;-96.766;2023-06-01T01:59:42;5.97;;;4.30;;
44272;SDS011;29964;17.182;-96.766;2023-06-01T02:02:09;10.13;;;5.10;;
44272;SDS011;29964;17.182;-96.766;2023-06-01T02:04:43;22.30;;;4.70;;
44272;SDS011;29964;17.182;-96.766;2023-06-01T02:07:11;9.77;;;4.70;;
44272;SDS011;29964;17.182;-96.766;2023-06-01T02:09:38;5.70;;;4.20;;
44272;SDS011;29964;17.182;-96.766;2023-06-01T02:12:05;20.40;;;5.23;;
44272;SDS011;29964;17.182;-96.766;2023-06-01T02:14:32;5.03;;;3.97;;
44272;SDS011;29964;17.182;-96.766;2023-06-01T02:16:59;10.07;;;5.70;;
44272;SDS011;29964;17.182;-96.766;2023-06-01T02:19:26;7.33;;;5.17;;
44272;SDS011;29964;17.182;-96.766;2023-06-01T02:21:53;9.10;;;5.33;;
44272;SDS011;29964;17.182;-96.766;2023-06-01T02:24:20;8.30;;;5.27;;
44272;SDS011;29964;17.182;-96.766;2023-06-01T02:26:47;13.60;;;5.53;;
44272;SDS011;29964;17.182;-96.766;2023-06-01T02:29:17;10.77;;;5.43;;
44272;SDS011;29964;17.182;-96.766;2023-06-01T02:31:47;6.93;;;4.83;;
44272;SDS011;29964;17.182;-96.766;2023-06-01T02:34:14;6.50;;;4.87;;
44272;SDS011;29964;17.182;-96.766;2023-06-01T02:36:41;6.87;;;4.57;;
44272;SDS011;29964;17.182;-96.766;2023-06-01T02:39:08;5.87;;;4.07;;
44272;SDS011;29964;17.182;-96.766;2023-06-01T02:41:35;7.10;;;3.87;;
44272;SDS011;29964;17.182;-96.766;2023-06-01T02:44:01;4.47;;;3.20;;
44272;SDS011;29964;17.182;-96.766;2023-06-01T02:46:28;5.10;;;3.47;;
44272;SDS011;29964;17.182;-96.766;2023-06-01T02:48:55;4.87;;;3.27;;
44272;SDS011;29964;17.182;-96.766;2023-06-01T02:51:22;6.10;;;3.43;;
44272;SDS011;29964;17.182;-96.766;2023-06-01T02:53:48;6.20;;;3.43;;
44272;SDS011;29964;17.182;-96.766;2023-06-01T02:56:15;5.30;;;3.83;;
44272;SDS011;29964;17.182;-96.766;2023-06-01T02:58:42;4.37;;;3.03;;
44272;SDS011;29964;17.182;-96.766;2023-06-01T03:01:09;4.23;;;3.47;;
44272;SDS011;29964;17.182;-96.766;2023-06-01T03:03:37;5.73;;;2.93;;
44272;SDS011;29964;17.182;-96.766;2023-06-01T03:06:09;4.13;;;3.13;;
44272;SDS011;29964;17.182;-96.766;2023-06-01T03:08:38;3.63;;;2.70;;
44272;SDS011;29964;17.182;-96.766;2023-06-01T03:11:05;5.73;;;3.00;;
44272;SDS011;29964;17.182;-96.766;2023-06-01T03:13:32;6.87;;;3.80;;
44272;SDS011;29964;17.182;-96.766;2023-06-01T03:15:58;5.63;;;3.70;;
44272;SDS011;29964;17.182;-96.766;2023-06-01T03:18:25;5.30;;;3.77;;
44272;SDS011;29964;17.182;-96.766;2023-06-01T03:20:52;5.60;;;2.80;;
44272;SDS011;29964;17.182;-96.766;2023-06-01T03:23:19;5.77;;;3.87;;
44272;SDS011;29964;17.182;-96.766;2023-06-01T03:25:45;4.70;;;3.27;;
44272;SDS011;29964;17.182;-96.766;2023-06-01T03:28:12;5.93;;;3.30;;
44272;SDS011;29964;17.182;-96.766;2023-06-01T03:30:39;9.27;;;3.17;;
44272;SDS011;29964;17.182;-96.766;2023-06-01T03:33:07;13.17;;;5.20;;
44272;SDS011;29964;17.182;-96.766;2023-06-01T03:35:34;5.70;;;3.83;;
44272;SDS011;29964;17.182;-96.766;2023-06-01T03:38:01;4.47;;;3.43;;
44272;SDS011;29964;17.182;-96.766;2023-06-01T03:40:28;4.03;;;2.97;;
44272;SDS011;29964;17.182;-96.766;2023-06-01T03:42:54;5.77;;;4.37;;
44272;SDS011;29964;17.182;-96.766;2023-06-01T03:45:21;9.00;;;4.63;;
44272;SDS011;29964;17.182;-96.766;2023-06-01T03:47:48;4.23;;;3.23;;
44272;SDS011;29964;17.182;-96.766;2023-06-01T03:50:15;4.67;;;3.53;;
44272;SDS011;29964;17.182;-96.766;2023-06-01T03:52:42;4.27;;;3.17;;
44272;SDS011;29964;17.182;-96.766;2023-06-01T03:55:08;3.63;;;2.57;;
44272;SDS011;29964;17.182;-96.766;2023-06-01T03:57:38;5.97;;;3.63;;
44272;SDS011;29964;17.182;-96.766;2023-06-01T04:00:06;6.90;;;3.83;;
44272;SDS011;29964;17.182;-96.766;2023-06-01T04:02:46;5.33;;;3.20;;
44272;SDS011;29964;17.182;-96.766;2023-06-01T04:07:44;10.23;;;3.33;;
44272;SDS011;29964;17.182;-96.766;2023-06-01T04:10:12;5.30;;;3.63;;
44272;SDS011;29964;17.182;-96.766;2023-06-01T04:12:45;10.70;;;4.83;;
44272;SDS011;29964;17.182;-96.766;2023-06-01T04:15:13;6.73;;;3.97;;
44272;SDS011;29964;17.182;-96.766;2023-06-01T04:17:40;6.47;;;3.87;;
44272;SDS011;29964;17.182;-96.766;2023-06-01T04:20:16;5.13;;;3.30;;
44272;SDS011;29964;17.182;-96.766;2023-06-01T04:22:44;6.37;;;3.60;;
44272;SDS011;29964;17.182;-96.766;2023-06-01T04:25:11;3.83;;;3.00;;
44272;SDS011;29964;17.182;-96.766;2023-06-01T04:27:43;3.73;;;3.00;;
44272;SDS011;29964;17.182;-96.766;2023-06-01T04:30:10;4.43;;;3.23;;
44272;SDS011;29964;17.182;-96.766;2023-06-01T04:32:37;3.83;;;2.93;;
44272;SDS011;29964;17.182;-96.766;2023-06-01T04:35:04;5.70;;;4.10;;
44272;SDS011;29964;17.182;-96.766;2023-06-01T04:37:35;4.10;;;2.60;;
44272;SDS011;29964;17.182;-96.766;2023-06-01T04:40:03;5.23;;;3.77;;
44272;SDS011;29964;17.182;-96.766;2023-06-01T04:42:33;4.13;;;3.20;;
44272;SDS011;29964;17.182;-96.766;2023-06-01T04:45:07;11.07;;;4.33;;
44272;SDS011;29964;17.182;-96.766;2023-06-01T04:47:35;4.07;;;3.00;;
44272;SDS011;29964;17.182;-96.766;2023-06-01T04:50:08;5.33;;;3.40;;
44272;SDS011;29964;17.182;-96.766;2023-06-01T04:52:36;7.70;;;4.23;;
44272;SDS011;29964;17.182;-96.766;2023-06-01T04:55:03;3.87;;;3.00;;
44272;SDS011;29964;17.182;-96.766;2023-06-01T04:57:35;4.43;;;3.53;;
44272;SDS011;29964;17.182;-96.766;2023-06-01T05:00:02;9.67;;;4.20;;
44272;SDS011;29964;17.182;-96.766;2023-06-01T05:02:36;6.75;;;3.70;;
44272;SDS011;29964;17.182;-96.766;2023-06-01T05:05:04;8.27;;;3.30;;
44272;SDS011;29964;17.182;-96.766;2023-06-01T05:07:31;4.63;;;3.17;;
44272;SDS011;29964;17.182;-96.766;2023-06-01T05:09:58;4.03;;;3.13;;
44272;SDS011;29964;17.182;-96.766;2023-06-01T05:12:29;4.07;;;3.03;;
44272;SDS011;29964;17.182;-96.766;2023-06-01T05:14:56;5.33;;;3.73;;
44272;SDS011;29964;17.182;-96.766;2023-06-01T05:17:23;5.40;;;3.60;;
44272;SDS011;29964;17.182;-96.766;2023-06-01T05:19:50;4.03;;;3.13;;
44272;SDS011;29964;17.182;-96.766;2023-06-01T05:22:16;5.57;;;3.70;;
44272;SDS011;29964;17.182;-96.766;2023-06-01T05:24:43;4.20;;;3.50;;
44272;SDS011;29964;17.182;-96.766;2023-06-01T05:27:10;6.00;;;4.00;;
44272;SDS011;29964;17.182;-96.766;2023-06-01T05:29:36;4.93;;;3.43;;
44272;SDS011;29964;17.182;-96.766;2023-06-01T05:32:03;5.97;;;4.13;;
44272;SDS011;29964;17.182;-96.766;2023-06-01T05:34:30;4.67;;;3.13;;
44272;SDS011;29964;17.182;-96.766;2023-06-01T05:36:57;7.90;;;3.43;;
44272;SDS011;29964;17.182;-96.766;2023-06-01T05:39:24;7.83;;;4.33;;
44272;SDS011;29964;17.182;-96.766;2023-06-01T05:41:56;7.30;;;4.13;;
44272;SDS011;29964;17.182;-96.766;2023-06-01T05:44:24;11.37;;;4.97;;
44272;SDS011;29964;17.182;-96.766;2023-06-01T05:46:51;4.57;;;3.63;;
44272;SDS011;29964;17.182;-96.766;2023-06-01T05:49:18;7.43;;;4.67;;
44272;SDS011;29964;17.182;-96.766;2023-06-01T05:51:45;3.80;;;3.07;;
44272;SDS011;29964;17.182;-96.766;2023-06-01T05:54:13;8.50;;;5.67;;
44272;SDS011;29964;17.182;-96.766;2023-06-01T05:56:40;5.67;;;3.80;;
44272;SDS011;29964;17.182;-96.766;2023-06-01T05:59:06;13.20;;;4.40;;
44272;SDS011;29964;17.182;-96.766;2023-06-01T06:01:33;11.73;;;4.80;;
44272;SDS011;29964;17.182;-96.766;2023-06-01T06:04:01;7.33;;;4.83;;
44272;SDS011;29964;17.182;-96.766;2023-06-01T06:06:28;6.07;;;4.17;;
44272;SDS011;29964;17.182;-96.766;2023-06-01T06:08:55;7.23;;;5.53;;
44272;SDS011;29964;17.182;-96.766;2023-06-01T06:11:22;6.67;;;4.17;;
44272;SDS011;29964;17.182;-96.766;2023-06-01T06:13:49;6.37;;;4.33;;
44272;SDS011;29964;17.182;-96.766;2023-06-01T06:16:16;7.17;;;4.63;;
44272;SDS011;29964;17.182;-96.766;2023-06-01T06:18:43;9.07;;;5.60;;
44272;SDS011;29964;17.182;-96.766;2023-06-01T06:21:09;11.27;;;4.53;;
44272;SDS011;29964;17.182;-96.766;2023-06-01T06:23:36;6.17;;;4.50;;
44272;SDS011;29964;17.182;-96.766;2023-06-01T06:26:05;9.13;;;4.30;;
44272;SDS011;29964;17.182;-96.766;2023-06-01T06:28:32;7.30;;;5.00;;
44272;SDS011;29964;17.182;-96.766;2023-06-01T06:30:59;6.47;;;4.80;;
44272;SDS011;29964;17.182;-96.766;2023-06-01T06:33:27;5.50;;;3.67;;
44272;SDS011;29964;17.182;-96.766;2023-06-01T06:35:53;4.43;;;3.63;;
44272;SDS011;29964;17.182;-96.766;2023-06-01T06:38:20;7.83;;;5.43;;
44272;SDS011;29964;17.182;-96.766;2023-06-01T06:40:47;6.90;;;5.27;;
44272;SDS011;29964;17.182;-96.766;2023-06-01T06:43:14;7.87;;;5.20;;
44272;SDS011;29964;17.182;-96.766;2023-06-01T06:45:41;7.20;;;5.17;;
44272;SDS011;29964;17.182;-96.766;2023-06-01T06:48:08;6.83;;;4.63;;
44272;SDS011;29964;17.182;-96.766;2023-06-01T06:50:34;8.83;;;4.60;;
44272;SDS011;29964;17.182;-96.766;2023-06-01T06:53:02;5.23;;;3.77;;
44272;SDS011;29964;17.182;-96.766;2023-06-01T06:55:29;7.63;;;4.63;;
44272;SDS011;29964;17.182;-96.766;2023-06-01T06:57:56;6.67;;;5.13;;
44272;SDS011;29964;17.182;-96.766;2023-06-01T07:00:23;7.17;;;4.37;;
44272;SDS011;29964;17.182;-96.766;2023-06-01T07:02:50;10.13;;;5.07;;
44272;SDS011;29964;17.182;-96.766;2023-06-01T07:05:16;6.10;;;4.33;;
44272;SDS011;29964;17.182;-96.766;2023-06-01T07:07:43;5.57;;;4.00;;
44272;SDS011;29964;17.182;-96.766;2023-06-01T07:10:10;8.93;;;5.00;;
44272;SDS011;29964;17.182;-96.766;2023-06-01T07:12:37;6.33;;;4.80;;
44272;SDS011;29964;17.182;-96.766;2023-06-01T07:15:04;22.70;;;11.03;;
44272;SDS011;29964;17.182;-96.766;2023-06-01T07:17:31;12.13;;;7.47;;
44272;SDS011;29964;17.182;-96.766;2023-06-01T07:19:59;9.03;;;5.67;;
44272;SDS011;29964;17.182;-96.766;2023-06-01T07:22:26;8.07;;;5.20;;
44272;SDS011;29964;17.182;-96.766;2023-06-01T07:24:53;8.37;;;5.47;;
44272;SDS011;29964;17.182;-96.766;2023-06-01T07:27:20;10.53;;;6.13;;
44272;SDS011;29964;17.182;-96.766;2023-06-01T07:29:46;6.77;;;5.07;;
44272;SDS011;29964;17.182;-96.766;2023-06-01T07:32:19;10.50;;;5.90;;
44272;SDS011;29964;17.182;-96.766;2023-06-01T07:34:46;6.60;;;4.97;;
44272;SDS011;29964;17.182;-96.766;2023-06-01T07:37:13;11.37;;;5.73;;
44272;SDS011;29964;17.182;-96.766;2023-06-01T07:39:41;7.70;;;5.60;;
44272;SDS011;29964;17.182;-96.766;2023-06-01T07:42:07;9.17;;;4.83;;
44272;SDS011;29964;17.182;-96.766;2023-06-01T07:44:34;5.80;;;4.53;;
44272;SDS011;29964;17.182;-96.766;2023-06-01T07:47:01;7.33;;;5.63;;
44272;SDS011;29964;17.182;-96.766;2023-06-01T07:49:28;7.40;;;4.80;;
44272;SDS011;29964;17.182;-96.766;2023-06-01T07:51:54;8.43;;;5.10;;
44272;SDS011;29964;17.182;-96.766;2023-06-01T07:54:24;6.53;;;5.30;;
44272;SDS011;29964;17.182;-96.766;2023-06-01T07:56:51;10.83;;;6.47;;
44272;SDS011;29964;17.182;-96.766;2023-06-01T07:59:19;8.87;;;6.57;;
44272;SDS011;29964;17.182;-96.766;2023-06-01T08:01:53;6.32;;;4.88;;
44272;SDS011;29964;17.182;-96.766;2023-06-01T08:04:22;13.23;;;5.23;;
44272;SDS011;29964;17.182;-96.766;2023-06-01T08:06:49;4.73;;;3.83;;
44272;SDS011;29964;17.182;-96.766;2023-06-01T08:09:21;8.90;;;5.73;;
44272;SDS011;29964;17.182;-96.766;2023-06-01T08:11:51;9.47;;;5.63;;
44272;SDS011;29964;17.182;-96.766;2023-06-01T08:14:19;5.90;;;4.90;;
44272;SDS011;29964;17.182;-96.766;2023-06-01T08:16:45;9.67;;;6.27;;
44272;SDS011;29964;17.182;-96.766;2023-06-01T08:19:13;21.23;;;6.13;;
44272;SDS011;29964;17.182;-96.766;2023-06-01T08:21:39;5.00;;;4.13;;
44272;SDS011;29964;17.182;-96.766;2023-06-01T08:24:07;5.50;;;4.87;;
44272;SDS011;29964;17.182;-96.766;2023-06-01T08:26:38;8.80;;;5.67;;
44272;SDS011;29964;17.182;-96.766;2023-06-01T08:29:05;12.33;;;5.87;;
44272;SDS011;29964;17.182;-96.766;2023-06-01T08:31:32;8.77;;;5.37;;
44272;SDS011;29964;17.182;-96.766;2023-06-01T08:33:59;13.30;;;6.03;;
44272;SDS011;29964;17.182;-96.766;2023-06-01T08:36:26;10.47;;;6.63;;
44272;SDS011;29964;17.182;-96.766;2023-06-01T08:38:54;10.73;;;5.37;;
44272;SDS011;29964;17.182;-96.766;2023-06-01T08:41:26;6.70;;;5.67;;
44272;SDS011;29964;17.182;-96.766;2023-06-01T08:43:58;7.37;;;6.30;;
44272;SDS011;29964;17.182;-96.766;2023-06-01T08:46:25;8.47;;;6.67;;
44272;SDS011;29964;17.182;-96.766;2023-06-01T08:48:53;8.90;;;5.73;;
44272;SDS011;29964;17.182;-96.766;2023-06-01T08:51:23;9.37;;;5.83;;
44272;SDS011;29964;17.182;-96.766;2023-06-01T08:53:50;6.13;;;5.33;;
44272;SDS011;29964;17.182;-96.766;2023-06-01T08:56:18;6.57;;;5.00;;
44272;SDS011;29964;17.182;-96.766;2023-06-01T08:58:47;8.33;;;6.20;;
44272;SDS011;29964;17.182;-96.766;2023-06-01T09:01:17;8.43;;;6.13;;
44272;SDS011;29964;17.182;-96.766;2023-06-01T09:03:49;8.83;;;6.80;;
44272;SDS011;29964;17.182;-96.766;2023-06-01T09:06:16;9.57;;;6.57;;
44272;SDS011;29964;17.182;-96.766;2023-06-01T09:08:44;10.40;;;5.30;;
44272;SDS011;29964;17.182;-96.766;2023-06-01T09:11:11;8.27;;;5.67;;
44272;SDS011;29964;17.182;-96.766;2023-06-01T09:13:38;9.80;;;7.17;;
44272;SDS011;29964;17.182;-96.766;2023-06-01T09:16:05;7.93;;;6.30;;
44272;SDS011;29964;17.182;-96.766;2023-06-01T09:18:32;8.87;;;5.37;;
44272;SDS011;29964;17.182;-96.766;2023-06-01T09:21:12;9.53;;;6.53;;
44272;SDS011;29964;17.182;-96.766;2023-06-01T09:23:40;5.47;;;4.80;;
44272;SDS011;29964;17.182;-96.766;2023-06-01T09:26:14;9.03;;;5.97;;
44272;SDS011;29964;17.182;-96.766;2023-06-01T09:28:56;13.33;;;5.50;;
44272;SDS011;29964;17.182;-96.766;2023-06-01T09:31:40;6.97;;;5.63;;
44272;SDS011;29964;17.182;-96.766;2023-06-01T09:34:10;9.67;;;7.10;;
44272;SDS011;29964;17.182;-96.766;2023-06-01T09:36:37;7.87;;;6.53;;
44272;SDS011;29964;17.182;-96.766;2023-06-01T09:39:05;40.73;;;7.50;;
44272;SDS011;29964;17.182;-96.766;2023-06-01T09:44:12;9.90;;;7.60;;
44272;SDS011;29964;17.182;-96.766;2023-06-01T09:46:46;15.13;;;7.63;;
44272;SDS011;29964;17.182;-96.766;2023-06-01T09:49:34;19.43;;;7.33;;
44272;SDS011;29964;17.182;-96.766;2023-06-01T09:57:02;6.83;;;5.73;;
44272;SDS011;29964;17.182;-96.766;2023-06-01T09:59:29;8.40;;;5.83;;
44272;SDS011;29964;17.182;-96.766;2023-06-01T10:01:57;12.00;;;4.90;;
44272;SDS011;29964;17.182;-96.766;2023-06-01T10:04:25;7.40;;;5.73;;
44272;SDS011;29964;17.182;-96.766;2023-06-01T10:06:53;7.10;;;5.60;;
44272;SDS011;29964;17.182;-96.766;2023-06-01T10:09:21;9.97;;;7.63;;
44272;SDS011;29964;17.182;-96.766;2023-06-01T10:11:49;9.43;;;6.43;;
44272;SDS011;29964;17.182;-96.766;2023-06-01T10:14:18;10.40;;;6.90;;
44272;SDS011;29964;17.182;-96.766;2023-06-01T10:16:46;9.97;;;7.10;;
44272;SDS011;29964;17.182;-96.766;2023-06-01T10:19:14;10.03;;;7.13;;
44272;SDS011;29964;17.182;-96.766;2023-06-01T10:21:41;11.10;;;7.33;;
44272;SDS011;29964;17.182;-96.766;2023-06-01T10:24:10;9.00;;;7.30;;
44272;SDS011;29964;17.182;-96.766;2023-06-01T10:26:42;11.37;;;8.23;;
44272;SDS011;29964;17.182;-96.766;2023-06-01T10:40:47;11.53;;;8.10;;
44272;SDS011;29964;17.182;-96.766;2023-06-01T10:45:58;31.02;;;7.93;;
44272;SDS011;29964;17.182;-96.766;2023-06-01T10:48:50;12.00;;;8.47;;
44272;SDS011;29964;17.182;-96.766;2023-06-01T10:51:19;7.00;;;5.50;;
44272;SDS011;29964;17.182;-96.766;2023-06-01T10:53:46;25.67;;;7.57;;
44272;SDS011;29964;17.182;-96.766;2023-06-01T10:56:22;9.07;;;6.70;;
44272;SDS011;29964;17.182;-96.766;2023-06-01T11:04:01;11.67;;;6.77;;
44272;SDS011;29964;17.182;-96.766;2023-06-01T11:06:32;8.70;;;7.17;;
44272;SDS011;29964;17.182;-96.766;2023-06-01T11:09:05;10.00;;;7.47;;
44272;SDS011;29964;17.182;-96.766;2023-06-01T11:12:17;8.43;;;6.37;;
44272;SDS011;29964;17.182;-96.766;2023-06-01T11:14:24;8.17;;;7.00;;
44272;SDS011;29964;17.182;-96.766;2023-06-01T11:16:54;11.77;;;8.70;;
44272;SDS011;29964;17.182;-96.766;2023-06-01T11:19:22;9.10;;;7.20;;
44272;SDS011;29964;17.182;-96.766;2023-06-01T11:21:56;10.83;;;6.77;;
44272;SDS011;29964;17.182;-96.766;2023-06-01T11:24:31;10.27;;;7.53;;
44272;SDS011;29964;17.182;-96.766;2023-06-01T11:27:08;7.93;;;6.97;;
44272;SDS011;29964;17.182;-96.766;2023-06-01T11:29:36;12.73;;;7.55;;
44272;SDS011;29964;17.182;-96.766;2023-06-01T11:32:03;10.50;;;8.03;;
44272;SDS011;29964;17.182;-96.766;2023-06-01T11:34:38;8.80;;;7.07;;
44272;SDS011;29964;17.182;-96.766;2023-06-01T11:37:16;13.43;;;7.60;;
44272;SDS011;29964;17.182;-96.766;2023-06-01T11:39:43;7.37;;;5.90;;
44272;SDS011;29964;17.182;-96.766;2023-06-01T11:42:17;9.30;;;7.23;;
44272;SDS011;29964;17.182;-96.766;2023-06-01T11:44:45;9.43;;;7.17;;
44272;SDS011;29964;17.182;-96.766;2023-06-01T11:47:12;9.67;;;8.13;;
44272;SDS011;29964;17.182;-96.766;2023-06-01T11:49:46;14.23;;;8.50;;
44272;SDS011;29964;17.182;-96.766;2023-06-01T11:52:17;13.33;;;7.93;;
44272;SDS011;29964;17.182;-96.766;2023-06-01T11:54:44;12.37;;;8.13;;
44272;SDS011;29964;17.182;-96.766;2023-06-01T11:57:11;9.63;;;6.50;;
44272;SDS011;29964;17.182;-96.766;2023-06-01T11:59:38;9.03;;;6.63;;
44272;SDS011;29964;17.182;-96.766;2023-06-01T12:04:58;11.67;;;7.97;;
44272;SDS011;29964;17.182;-96.766;2023-06-01T12:07:27;8.93;;;7.33;;
44272;SDS011;29964;17.182;-96.766;2023-06-01T12:09:55;13.67;;;8.27;;
44272;SDS011;29964;17.182;-96.766;2023-06-01T12:12:23;10.60;;;8.13;;
44272;SDS011;29964;17.182;-96.766;2023-06-01T12:14:50;11.60;;;7.00;;
44272;SDS011;29964;17.182;-96.766;2023-06-01T12:17:17;11.77;;;7.80;;
44272;SDS011;29964;17.182;-96.766;2023-06-01T12:19:47;12.27;;;8.33;;
44272;SDS011;29964;17.182;-96.766;2023-06-01T12:22:15;6.80;;;5.93;;
44272;SDS011;29964;17.182;-96.766;2023-06-01T12:24:44;7.90;;;7.10;;
44272;SDS011;29964;17.182;-96.766;2023-06-01T12:27:17;9.97;;;7.20;;
44272;SDS011;29964;17.182;-96.766;2023-06-01T12:29:47;13.53;;;7.57;;
44272;SDS011;29964;17.182;-96.766;2023-06-01T12:32:15;10.97;;;8.73;;
44272;SDS011;29964;17.182;-96.766;2023-06-01T12:34:43;9.33;;;7.33;;
44272;SDS011;29964;17.182;-96.766;2023-06-01T12:37:17;8.70;;;7.63;;
44272;SDS011;29964;17.182;-96.766;2023-06-01T12:39:53;7.57;;;6.70;;
44272;SDS011;29964;17.182;-96.766;2023-06-01T12:42:39;14.63;;;8.17;;
44272;SDS011;29964;17.182;-96.766;2023-06-01T12:45:07;9.93;;;8.07;;
44272;SDS011;29964;17.182;-96.766;2023-06-01T12:47:37;11.93;;;8.77;;
44272;SDS011;29964;17.182;-96.766;2023-06-01T12:50:05;9.63;;;8.07;;
44272;SDS011;29964;17.182;-96.766;2023-06-01T12:52:32;13.43;;;8.70;;
44272;SDS011;29964;17.182;-96.766;2023-06-01T12:54:58;12.60;;;10.80;;
44272;SDS011;29964;17.182;-96.766;2023-06-01T12:57:25;20.97;;;12.50;;
44272;SDS011;29964;17.182;-96.766;2023-06-01T12:59:52;14.93;;;10.73;;
44272;SDS011;29964;17.182;-96.766;2023-06-01T13:02:19;12.17;;;10.23;;
44272;SDS011;29964;17.182;-96.766;2023-06-01T13:04:46;32.83;;;11.40;;
44272;SDS011;29964;17.182;-96.766;2023-06-01T13:07:13;19.53;;;10.93;;
44272;SDS011;29964;17.182;-96.766;2023-06-01T13:09:40;16.90;;;11.13;;
44272;SDS011;29964;17.182;-96.766;2023-06-01T13:12:07;15.67;;;11.20;;
44272;SDS011;29964;17.182;-96.766;2023-06-01T13:14:34;19.20;;;12.13;;
44272;SDS011;29964;17.182;-96.766;2023-06-01T13:17:01;19.73;;;12.77;;
44272;SDS011;29964;17.182;-96.766;2023-06-01T13:19:28;15.20;;;11.90;;
44272;SDS011;29964;17.182;-96.766;2023-06-01T13:21:55;14.80;;;11.33;;
44272;SDS011;29964;17.182;-96.766;2023-06-01T13:24:22;14.17;;;10.37;;
44272;SDS011;29964;17.182;-96.766;2023-06-01T13:26:50;14.97;;;10.37;;
44272;SDS011;29964;17.182;-96.766;2023-06-01T13:29:16;13.97;;;9.90;;
44272;SDS011;29964;17.182;-96.766;2023-06-01T13:31:43;10.80;;;9.00;;
44272;SDS011;29964;17.182;-96.766;2023-06-01T13:34:10;15.00;;;9.10;;
44272;SDS011;29964;17.182;-96.766;2023-06-01T13:36:37;10.70;;;8.83;;
44272;SDS011;29964;17.182;-96.766;2023-06-01T13:39:04;16.10;;;9.30;;
44272;SDS011;29964;17.182;-96.766;2023-06-01T13:41:31;11.20;;;8.07;;
44272;SDS011;29964;17.182;-96.766;2023-06-01T13:43:57;14.97;;;8.97;;
44272;SDS011;29964;17.182;-96.766;2023-06-01T13:46:24;10.43;;;8.33;;
44272;SDS011;29964;17.182;-96.766;2023-06-01T13:48:51;9.77;;;7.53;;
44272;SDS011;29964;17.182;-96.766;2023-06-01T13:51:18;11.67;;;7.97;;
44272;SDS011;29964;17.182;-96.766;2023-06-01T13:53:45;14.97;;;8.13;;
44272;SDS011;29964;17.182;-96.766;2023-06-01T13:56:11;13.10;;;8.40;;
44272;SDS011;29964;17.182;-96.766;2023-06-01T13:58:38;11.07;;;8.57;;
44272;SDS011;29964;17.182;-96.766;2023-06-01T14:01:05;11.23;;;8.50;;
44272;SDS011;29964;17.182;-96.766;2023-06-01T14:03:32;13.13;;;8.93;;
44272;SDS011;29964;17.182;-96.766;2023-06-01T14:05:58;13.77;;;9.20;;
44272;SDS011;29964;17.182;-96.766;2023-06-01T14:08:25;13.77;;;9.17;;
44272;SDS011;29964;17.182;-96.766;2023-06-01T14:10:52;13.17;;;9.37;;
44272;SDS011;29964;17.182;-96.766;2023-06-01T14:13:19;11.30;;;9.07;;
44272;SDS011;29964;17.182;-96.766;2023-06-01T14:15:46;11.53;;;8.50;;
44272;SDS011;29964;17.182;-96.766;2023-06-01T14:18:12;18.80;;;8.40;;
44272;SDS011;29964;17.182;-96.766;2023-06-01T14:20:39;13.30;;;6.30;;
44272;SDS011;29964;17.182;-96.766;2023-06-01T14:23:06;11.80;;;8.30;;
44272;SDS011;29964;17.182;-96.766;2023-06-01T14:25:34;11.90;;;8.70;;
44272;SDS011;29964;17.182;-96.766;2023-06-01T14:28:01;9.03;;;6.90;;
44272;SDS011;29964;17.182;-96.766;2023-06-01T14:30:28;13.97;;;7.53;;
44272;SDS011;29964;17.182;-96.766;2023-06-01T14:32:55;23.33;;;7.87;;
44272;SDS011;29964;17.182;-96.766;2023-06-01T14:35:22;7.57;;;6.33;;
44272;SDS011;29964;17.182;-96.766;2023-06-01T14:37:52;7.57;;;6.70;;
44272;SDS011;29964;17.182;-96.766;2023-06-01T14:40:19;12.33;;;8.40;;
44272;SDS011;29964;17.182;-96.766;2023-06-01T14:42:46;7.17;;;5.80;;
44272;SDS011;29964;17.182;-96.766;2023-06-01T14:45:12;7.73;;;6.60;;
44272;SDS011;29964;17.182;-96.766;2023-06-01T14:47:39;8.77;;;7.40;;
44272;SDS011;29964;17.182;-96.766;2023-06-01T14:50:09;15.03;;;8.23;;
44272;SDS011;29964;17.182;-96.766;2023-06-01T14:52:36;12.93;;;7.23;;
44272;SDS011;29964;17.182;-96.766;2023-06-01T14:55:03;8.43;;;6.27;;
44272;SDS011;29964;17.182;-96.766;2023-06-01T14:57:30;9.40;;;6.70;;
44272;SDS011;29964;17.182;-96.766;2023-06-01T14:59:57;9.77;;;6.87;;